Time;durP1;ratioP1;P1;durP2;ratioP2;P2;SDS_P1;SDS_P2;PMS_P1;PMS_P2;Temp;Humidity;BMP_temperature;BMP_pressure;BME280_temperature;BME280_humidity;BME280_pressure;Samples;Min_cycle;Max_cycle;Signal;HPM_P1;HPM_P2
2023/09/14 00:01:25;;;;;;;;;;;;;;;21.68;28.64;98117.13;4959250;29;1981;-77
2023/09/14 00:03:54;;;;;;;;;;;;;;;21.45;28.73;98108.78;4972994;28;1229;-77
2023/09/14 00:06:19;;;;;;;;;;;;;;;21.20;29.54;98104.50;4978468;28;1179;-76
2023/09/14 00:08:45;;;;;;;;;;;;;;;21.40;29.00;98106.47;4978341;28;937;-77
2023/09/14 00:11:11;;;;;;;;;;;;;;;21.51;28.91;98107.03;4962092;28;1754;-78
2023/09/14 00:13:36;;;;;;;;;;;;;;;21.70;28.54;98108.19;4961978;28;943;-77
2023/09/14 00:16:02;;;;;;;;;;;;;;;21.67;28.79;98104.22;4978067;28;1075;-77
2023/09/14 00:18:28;;;;;;;;;;;;;;;21.62;28.52;98101.13;4939500;29;1141;-77
2023/09/14 00:20:53;;;;;;;;;;;;;;;21.71;28.66;98101.25;4939653;29;1899;-77
2023/09/14 00:23:20;;;;;;;;;;;;;;;21.95;28.01;98097.00;4967380;28;1037;-77
2023/09/14 00:25:46;;;;;;;;;;;;;;;21.55;28.72;98102.06;4981019;28;971;-78
2023/09/14 00:28:11;;;;;;;;;;;;;;;21.60;28.68;98104.38;5015612;28;1363;-78
2023/09/14 00:30:37;;;;;;;;;;;;;;;21.51;28.96;98095.72;5020368;28;1100;-78
2023/09/14 00:33:02;;;;;;;;;;;;;;;21.45;28.91;98092.63;5020070;28;1049;-77
2023/09/14 00:35:28;;;;;;;;;;;;;;;21.74;28.24;98095.53;5020271;28;1119;-77
2023/09/14 00:37:53;;;;;;;;;;;;;;;21.53;28.68;98099.69;5020080;28;1577;-77
2023/09/14 00:40:19;;;;;;;;;;;;;;;21.54;28.62;98103.31;5019930;28;1969;-78
2023/09/14 00:42:45;;;;;;;;;;;;;;;21.57;28.86;98094.75;4977510;28;1326;-78
2023/09/14 00:45:14;;;;;;;;;;;;;;;21.44;29.13;98090.22;4945376;28;1327;-77
2023/09/14 00:47:40;;;;;;;;;;;;;;;21.48;28.98;98091.72;4961869;28;1356;-78
2023/09/14 00:50:06;;;;;;;;;;;;;;;21.54;28.83;98086.31;4975293;28;1503;-77
2023/09/14 00:52:32;;;;;;;;;;;;;;;21.69;28.55;98090.38;4984081;28;1298;-77
2023/09/14 00:54:57;;;;;;;;;;;;;;;21.43;28.80;98092.25;5000247;28;1119;-77
2023/09/14 00:57:23;;;;;;;;;;;;;;;21.52;28.69;98086.78;5016698;28;951;-77
2023/09/14 00:59:48;;;;;;;;;;;;;;;21.50;28.89;98086.44;5016469;28;1963;-78
2023/09/14 01:02:15;;;;;;;;;;;;;;;21.36;28.87;98088.81;5000038;28;1068;-77
2023/09/14 01:04:40;;;;;;;;;;;;;;;21.64;28.53;98084.47;5000083;28;926;-77
2023/09/14 01:07:06;;;;;;;;;;;;;;;21.51;28.94;98084.41;4999173;28;1118;-77
2023/09/14 01:09:31;;;;;;;;;;;;;;;21.61;28.78;98082.53;4999883;28;1202;-77
2023/09/14 01:11:57;;;;;;;;;;;;;;;21.43;28.81;98077.31;5016380;28;1220;-77
2023/09/14 01:14:24;;;;;;;;;;;;;;;21.60;28.67;98076.06;5031149;28;1090;-77
2023/09/14 01:16:53;;;;;;;;;;;;;;;21.36;28.95;98071.84;5040443;28;1213;-77
2023/09/14 01:19:27;;;;;;;;;;;;;;;21.17;29.08;98076.28;5019168;28;1902;-77
2023/09/14 01:21:53;;;;;;;;;;;;;;;21.36;29.03;98080.31;5036111;28;980;-78
2023/09/14 01:24:22;;;;;;;;;;;;;;;21.39;29.17;98082.25;5019180;28;1368;-77
2023/09/14 01:26:48;;;;;;;;;;;;;;;21.28;29.24;98088.13;5018867;28;1187;-77
2023/09/14 01:29:14;;;;;;;;;;;;;;;21.27;29.27;98081.69;5003014;28;1036;-78
2023/09/14 01:31:41;;;;;;;;;;;;;;;21.19;29.22;98091.59;5035902;28;1006;-77
2023/09/14 01:34:06;;;;;;;;;;;;;;;21.47;28.97;98080.84;5019103;28;1216;-77
2023/09/14 01:36:36;;;;;;;;;;;;;;;21.43;28.84;98082.97;5003020;28;1376;-77
2023/09/14 01:39:04;;;;;;;;;;;;;;;21.69;28.51;98084.72;5019205;28;1206;-77
2023/09/14 01:41:34;;;;;;;;;;;;;;;21.46;28.66;98076.44;5004120;28;1253;-77
2023/09/14 01:44:00;;;;;;;;;;;;;;;21.45;28.69;98086.13;5019323;28;934;-76
2023/09/14 01:46:26;;;;;;;;;;;;;;;21.31;29.15;98082.44;5018716;28;900;-77
2023/09/14 01:48:51;;;;;;;;;;;;;;;21.18;29.30;98077.88;5002658;28;1235;-77
2023/09/14 01:51:17;;;;;;;;;;;;;;;21.17;29.36;98079.91;5031860;28;1112;-77
2023/09/14 01:53:42;;;;;;;;;;;;;;;21.41;29.02;98079.78;5002339;28;1305;-78
2023/09/14 01:56:08;;;;;;;;;;;;;;;21.39;29.02;98088.72;5018630;28;999;-78
2023/09/14 01:58:35;;;;;;;;;;;;;;;21.22;29.20;98090.72;5035032;28;1531;-77
2023/09/14 02:01:01;;;;;;;;;;;;;;;21.50;28.76;98088.44;5002260;28;1990;-78
2023/09/14 02:03:26;;;;;;;;;;;;;;;21.40;28.96;98084.66;5018369;28;1095;-78
2023/09/14 02:05:58;;;;;;;;;;;;;;;21.49;28.62;98086.84;5018742;28;1001;-78
2023/09/14 02:08:23;;;;;;;;;;;;;;;21.53;28.49;98088.38;5002379;28;1197;-77
2023/09/14 02:10:49;;;;;;;;;;;;;;;21.63;28.46;98092.16;5002076;28;1239;-76
2023/09/14 02:13:14;;;;;;;;;;;;;;;21.64;28.39;98087.31;5034968;28;922;-77
2023/09/14 02:15:40;;;;;;;;;;;;;;;21.68;28.57;98091.63;5018595;28;1115;-78
2023/09/14 02:18:06;;;;;;;;;;;;;;;21.54;28.53;98092.00;5018041;28;953;-77
2023/09/14 02:20:31;;;;;;;;;;;;;;;21.49;28.67;98086.84;5017586;28;1910;-77
2023/09/14 02:22:57;;;;;;;;;;;;;;;21.67;28.41;98081.56;5030685;28;1171;-77
2023/09/14 02:25:22;;;;;;;;;;;;;;;21.54;28.59;98077.84;5039371;28;881;-77
2023/09/14 02:27:48;;;;;;;;;;;;;;;21.38;29.09;98069.34;5056709;28;949;-77
2023/09/14 02:30:13;;;;;;;;;;;;;;;21.70;28.40;98074.97;5039135;28;1181;-77
2023/09/14 02:32:39;;;;;;;;;;;;;;;21.56;28.45;98072.53;5055908;28;1451;-78
2023/09/14 02:35:05;;;;;;;;;;;;;;;21.47;28.69;98080.84;5039152;28;967;-76
2023/09/14 02:37:31;;;;;;;;;;;;;;;21.41;28.77;98076.97;5039100;28;1170;-78
2023/09/14 02:39:57;;;;;;;;;;;;;;;21.63;28.52;98080.84;5055412;28;1902;-77
2023/09/14 02:42:22;;;;;;;;;;;;;;;21.43;28.84;98072.44;5055235;28;1234;-77
2023/09/14 02:44:48;;;;;;;;;;;;;;;21.38;28.60;98070.13;5056834;28;855;-77
2023/09/14 02:47:14;;;;;;;;;;;;;;;21.62;28.35;98073.59;5055472;28;1175;-77
2023/09/14 02:49:39;;;;;;;;;;;;;;;21.28;29.27;98069.13;5038857;28;1228;-77
2023/09/14 02:52:05;;;;;;;;;;;;;;;21.49;28.59;98075.53;5034116;28;1541;-77
2023/09/14 02:54:30;;;;;;;;;;;;;;;21.45;28.84;98080.47;5017602;28;1150;-77
2023/09/14 02:56:56;;;;;;;;;;;;;;;21.51;28.56;98084.41;5033993;28;888;-77
2023/09/14 02:59:21;;;;;;;;;;;;;;;21.57;28.54;98085.44;5034248;28;1992;-76
2023/09/14 03:01:49;;;;;;;;;;;;;;;21.57;28.52;98088.28;5033822;28;1130;-77
2023/09/14 03:04:15;;;;;;;;;;;;;;;21.25;28.93;98089.03;5001443;28;1175;-77
2023/09/14 03:06:43;;;;;;;;;;;;;;;21.30;28.88;98085.72;4978756;28;1241;-77
2023/09/14 03:09:08;;;;;;;;;;;;;;;21.06;29.12;98087.84;4994138;28;1070;-77
2023/09/14 03:11:34;;;;;;;;;;;;;;;21.49;28.48;98086.84;4994410;28;1178;-77
2023/09/14 03:14:00;;;;;;;;;;;;;;;21.43;28.96;98085.81;4994181;28;944;-77
2023/09/14 03:16:26;;;;;;;;;;;;;;;21.40;28.85;98089.50;4978170;28;1154;-78
2023/09/14 03:18:52;;;;;;;;;;;;;;;21.60;28.59;98078.88;4994224;28;1292;-77
2023/09/14 03:21:20;;;;;;;;;;;;;;;21.22;29.09;98076.56;4994229;28;1910;-77
2023/09/14 03:23:46;;;;;;;;;;;;;;;21.56;28.68;98081.03;5025190;28;1018;-77
2023/09/14 03:26:13;;;;;;;;;;;;;;;21.65;28.39;98084.00;5001057;28;987;-77
2023/09/14 03:28:39;;;;;;;;;;;;;;;21.72;28.30;98077.41;4991390;28;1274;-77
2023/09/14 03:31:04;;;;;;;;;;;;;;;21.41;28.65;98077.75;5022416;28;1198;-77
2023/09/14 03:33:30;;;;;;;;;;;;;;;21.23;29.02;98080.97;5013651;28;1236;-77
2023/09/14 03:35:55;;;;;;;;;;;;;;;21.42;28.77;98081.38;5016632;28;1815;-77
2023/09/14 03:38:21;;;;;;;;;;;;;;;21.24;28.88;98081.75;5015974;28;1633;-77
2023/09/14 03:40:47;;;;;;;;;;;;;;;21.64;28.38;98075.97;5017291;28;1906;-77
2023/09/14 03:43:12;;;;;;;;;;;;;;;21.37;28.83;98084.75;5019811;28;1157;-77
2023/09/14 03:45:38;;;;;;;;;;;;;;;21.45;28.83;98080.47;5038317;28;1140;-77
2023/09/14 03:48:04;;;;;;;;;;;;;;;21.56;28.41;98087.50;5055699;28;1221;-77
2023/09/14 03:50:30;;;;;;;;;;;;;;;21.46;28.69;98087.75;5036956;28;1247;-78
2023/09/14 03:52:55;;;;;;;;;;;;;;;21.40;28.42;98079.00;5036209;28;1749;-77
2023/09/14 03:55:21;;;;;;;;;;;;;;;21.36;28.81;98078.28;5035418;28;1552;-78
2023/09/14 03:57:47;;;;;;;;;;;;;;;21.49;28.61;98087.66;5035897;28;1648;-77
2023/09/14 04:00:15;;;;;;;;;;;;;;;21.51;28.34;98078.72;5036546;28;1910;-77
2023/09/14 04:02:42;;;;;;;;;;;;;;;21.60;28.23;98076.06;5036914;28;955;-77
2023/09/14 04:05:13;;;;;;;;;;;;;;;21.59;28.13;98082.97;5020355;28;1151;-77
2023/09/14 04:07:38;;;;;;;;;;;;;;;21.55;28.42;98085.91;5020326;28;926;-77
2023/09/14 04:10:06;;;;;;;;;;;;;;;21.44;28.45;98090.22;5036283;28;1249;-77
2023/09/14 04:12:31;;;;;;;;;;;;;;;21.45;28.82;98091.81;5020168;28;1291;-77
2023/09/14 04:14:57;;;;;;;;;;;;;;;21.48;28.74;98091.72;5036481;28;1238;-77
2023/09/14 04:17:22;;;;;;;;;;;;;;;21.66;28.01;98091.28;5052923;28;1239;-78
2023/09/14 04:19:48;;;;;;;;;;;;;;;21.58;28.39;98087.03;5036214;28;1902;-77
2023/09/14 04:22:14;;;;;;;;;;;;;;;21.63;28.11;98092.16;5053281;28;1266;-78
2023/09/14 04:24:39;;;;;;;;;;;;;;;21.56;28.29;98092.34;5053050;28;1106;-77
2023/09/14 04:27:05;;;;;;;;;;;;;;;21.38;28.59;98080.66;5052492;28;1307;-77
2023/09/14 04:29:31;;;;;;;;;;;;;;;21.17;29.13;98085.56;5019350;28;1512;-78
2023/09/14 04:31:56;;;;;;;;;;;;;;;21.36;28.90;98094.47;5036414;28;1316;-77
2023/09/14 04:34:22;;;;;;;;;;;;;;;21.41;28.79;98086.25;5052906;28;1204;-78
2023/09/14 04:36:48;;;;;;;;;;;;;;;21.43;28.59;98085.81;5036474;28;1101;-77
2023/09/14 04:39:14;;;;;;;;;;;;;;;21.49;28.83;98087.66;4992538;28;1408;-77
2023/09/14 04:41:40;;;;;;;;;;;;;;;21.50;28.84;98094.94;5027803;28;2052;-77
2023/09/14 04:44:05;;;;;;;;;;;;;;;21.19;29.33;98094.44;5019948;28;1478;-77
2023/09/14 04:46:31;;;;;;;;;;;;;;;21.17;29.30;98096.09;5020022;28;1111;-77
2023/09/14 04:48:57;;;;;;;;;;;;;;;21.35;28.84;98095.69;5033473;28;1442;-77
2023/09/14 04:51:23;;;;;;;;;;;;;;;21.33;28.85;98090.47;5016734;28;1008;-77
2023/09/14 04:53:49;;;;;;;;;;;;;;;21.72;28.48;98100.84;5000111;28;1147;-77
2023/09/14 04:56:14;;;;;;;;;;;;;;;21.71;28.34;98099.25;5016108;28;1111;-78
2023/09/14 04:58:40;;;;;;;;;;;;;;;21.49;28.71;98098.19;5016452;28;1507;-77
2023/09/14 05:01:05;;;;;;;;;;;;;;;21.33;29.08;98091.28;5000091;28;1894;-78
2023/09/14 05:03:31;;;;;;;;;;;;;;;21.33;29.16;98099.75;5017630;28;1467;-77
2023/09/14 05:05:56;;;;;;;;;;;;;;;21.52;29.02;98100.94;5018393;28;1457;-78
2023/09/14 05:08:23;;;;;;;;;;;;;;;21.65;28.85;98095.34;5016023;28;1102;-77
2023/09/14 05:10:52;;;;;;;;;;;;;;;21.58;28.89;98102.00;5016108;28;1225;-78
2023/09/14 05:13:20;;;;;;;;;;;;;;;21.58;28.94;98095.53;4984799;28;1188;-77
2023/09/14 05:15:46;;;;;;;;;;;;;;;21.62;28.96;98096.25;5004738;28;1110;-77
2023/09/14 05:18:12;;;;;;;;;;;;;;;21.57;28.92;98096.78;5039320;28;1036;-77
2023/09/14 05:20:41;;;;;;;;;;;;;;;21.55;29.17;98096.41;5038591;28;1902;-77
2023/09/14 05:23:06;;;;;;;;;;;;;;;21.09;29.72;98098.31;5039281;28;1182;-77
2023/09/14 05:25:32;;;;;;;;;;;;;;;21.46;29.13;98099.09;5022342;28;1140;-77
2023/09/14 05:27:58;;;;;;;;;;;;;;;21.76;28.79;98107.22;5038651;28;1457;-77
2023/09/14 05:30:24;;;;;;;;;;;;;;;21.42;29.04;98104.03;5038426;28;1502;-78
2023/09/14 05:32:51;;;;;;;;;;;;;;;21.65;28.77;98094.53;5022967;28;1170;-78
2023/09/14 05:35:16;;;;;;;;;;;;;;;21.60;28.79;98101.53;5038893;28;1097;-77
2023/09/14 05:37:42;;;;;;;;;;;;;;;21.70;28.73;98094.81;5038945;28;1162;-77
2023/09/14 05:40:11;;;;;;;;;;;;;;;21.53;28.94;98096.06;5038613;28;1906;-77
2023/09/14 05:42:39;;;;;;;;;;;;;;;21.52;29.27;98095.28;5019600;28;1222;-78
2023/09/14 05:45:05;;;;;;;;;;;;;;;21.74;29.01;98098.34;5018091;28;1423;-77
2023/09/14 05:47:31;;;;;;;;;;;;;;;21.55;29.08;98090.75;4996070;28;1147;-77
2023/09/14 05:49:56;;;;;;;;;;;;;;;21.45;29.39;98091.81;4979804;28;1293;-77
2023/09/14 05:52:22;;;;;;;;;;;;;;;21.51;29.30;98090.06;4979782;28;1175;-77
2023/09/14 05:54:48;;;;;;;;;;;;;;;21.37;29.48;98090.41;4979387;28;1271;-77
2023/09/14 05:57:14;;;;;;;;;;;;;;;21.67;29.22;98075.88;4960335;28;1188;-77
2023/09/14 05:59:40;;;;;;;;;;;;;;;21.63;29.29;98083.69;4943433;28;1894;-77
2023/09/14 06:02:06;;;;;;;;;;;;;;;21.43;29.60;98077.31;4960030;28;1181;-78
2023/09/14 06:04:32;;;;;;;;;;;;;;;21.49;29.39;98086.84;4944438;28;1169;-78
2023/09/14 06:06:58;;;;;;;;;;;;;;;21.42;29.72;98076.50;4976345;28;1076;-77
2023/09/14 06:09:24;;;;;;;;;;;;;;;21.49;29.78;98075.53;4976067;28;1226;-77
2023/09/14 06:11:50;;;;;;;;;;;;;;;21.62;29.44;98084.91;4975929;28;1173;-77
2023/09/14 06:14:15;;;;;;;;;;;;;;;21.73;28.97;98074.09;4976302;28;1555;-77
2023/09/14 06:16:41;;;;;;;;;;;;;;;21.80;28.88;98079.56;4982460;28;988;-77
2023/09/14 06:19:06;;;;;;;;;;;;;;;21.64;29.20;98082.44;5011190;28;1587;-78
2023/09/14 06:21:32;;;;;;;;;;;;;;;21.76;29.27;98078.91;5032461;28;1971;-77
2023/09/14 06:23:58;;;;;;;;;;;;;;;21.90;29.16;98076.91;5037419;28;1464;-77
2023/09/14 06:26:26;;;;;;;;;;;;;;;21.58;29.62;98084.22;5054106;28;1422;-77
2023/09/14 06:28:51;;;;;;;;;;;;;;;21.54;29.61;98075.78;5036635;28;1894;-77
2023/09/14 06:31:17;;;;;;;;;;;;;;;21.26;29.91;98074.44;5021699;28;980;-78
2023/09/14 06:33:42;;;;;;;;;;;;;;;21.62;29.64;98078.47;5037966;28;1700;-77
2023/09/14 06:36:08;;;;;;;;;;;;;;;21.66;29.50;98084.81;5056904;28;1087;-76
2023/09/14 06:38:33;;;;;;;;;;;;;;;21.66;29.46;98088.47;5055246;28;1065;-77
2023/09/14 06:40:59;;;;;;;;;;;;;;;21.55;29.66;98090.75;5056709;28;1906;-78
2023/09/14 06:43:25;;;;;;;;;;;;;;;21.37;30.11;98093.22;5056340;28;965;-77
2023/09/14 06:45:50;;;;;;;;;;;;;;;21.69;29.42;98087.56;5072380;28;1719;-78
2023/09/14 06:48:16;;;;;;;;;;;;;;;21.75;29.25;98094.28;5056783;28;917;-77
2023/09/14 06:50:41;;;;;;;;;;;;;;;21.74;29.39;98089.84;5037570;28;1019;-76
2023/09/14 06:53:08;;;;;;;;;;;;;;;21.74;29.64;98092.69;5056352;28;907;-77
2023/09/14 06:55:36;;;;;;;;;;;;;;;21.39;30.15;98093.56;5055599;28;1355;-78
2023/09/14 06:58:02;;;;;;;;;;;;;;;21.83;29.54;98094.91;5055096;28;986;-77
2023/09/14 07:00:27;;;;;;;;;;;;;;;21.82;29.32;98094.09;5056148;28;1906;-77
2023/09/14 07:02:53;;;;;;;;;;;;;;;21.92;29.21;98091.44;5056072;28;985;-78
2023/09/14 07:05:18;;;;;;;;;;;;;;;21.87;29.33;98098.44;5056018;28;1130;-77
2023/09/14 07:07:44;;;;;;;;;;;;;;;21.83;29.46;98112.69;5055548;28;1037;-77
2023/09/14 07:10:10;;;;;;;;;;;;;;;21.45;29.96;98108.78;5055747;28;1613;-77
2023/09/14 07:12:35;;;;;;;;;;;;;;;21.69;29.86;98104.56;5055997;28;1440;-77
2023/09/14 07:15:02;;;;;;;;;;;;;;;21.78;29.41;98107.56;5037198;28;1485;-77
2023/09/14 07:17:27;;;;;;;;;;;;;;;21.43;30.10;98105.63;5055029;28;1717;-78
2023/09/14 07:19:53;;;;;;;;;;;;;;;21.50;30.10;98111.91;5055172;28;1979;-77
2023/09/14 07:22:19;;;;;;;;;;;;;;;21.46;30.22;98110.41;5056023;28;1648;-77
2023/09/14 07:24:44;;;;;;;;;;;;;;;21.89;29.57;98109.31;5033660;28;970;-77
2023/09/14 07:27:11;;;;;;;;;;;;;;;22.10;29.27;98108.75;5017111;28;1028;-77
2023/09/14 07:29:37;;;;;;;;;;;;;;;21.42;30.47;98112.53;5017287;28;890;-77
2023/09/14 07:32:03;;;;;;;;;;;;;;;21.84;29.81;98114.28;5033957;28;923;-78
2023/09/14 07:34:29;;;;;;;;;;;;;;;21.76;29.84;98114.88;5015708;28;1579;-78
2023/09/14 07:36:55;;;;;;;;;;;;;;;21.83;29.49;98112.69;5033539;28;988;-77
2023/09/14 07:39:20;;;;;;;;;;;;;;;21.69;29.95;98115.88;5017200;28;980;-78
2023/09/14 07:41:46;;;;;;;;;;;;;;;21.71;29.91;98116.25;5033399;28;1914;-77
2023/09/14 07:44:12;;;;;;;;;;;;;;;21.66;29.97;98116.78;4984296;28;969;-77
2023/09/14 07:46:39;;;;;;;;;;;;;;;21.67;30.13;98115.53;5033167;28;1488;-78
2023/09/14 07:49:05;;;;;;;;;;;;;;;21.67;29.84;98118.38;5009115;28;1481;-77
2023/09/14 07:51:31;;;;;;;;;;;;;;;21.96;29.44;98106.28;4993710;28;1500;-77
2023/09/14 07:53:56;;;;;;;;;;;;;;;21.67;30.18;98120.41;4993804;28;1000;-78
2023/09/14 07:56:22;;;;;;;;;;;;;;;21.66;30.16;98113.13;5008506;28;1429;-77
2023/09/14 07:58:48;;;;;;;;;;;;;;;21.96;29.52;98111.97;5013795;28;999;-77
2023/09/14 08:01:13;;;;;;;;;;;;;;;21.79;29.82;98114.00;5013190;28;1907;-77
2023/09/14 08:03:39;;;;;;;;;;;;;;;21.59;30.28;98119.78;5013500;28;989;-77
2023/09/14 08:06:04;;;;;;;;;;;;;;;21.79;29.80;98120.47;4996869;28;995;-78
2023/09/14 08:08:32;;;;;;;;;;;;;;;21.84;29.98;98124.81;4996985;28;1035;-78
2023/09/14 08:10:58;;;;;;;;;;;;;;;21.77;29.76;98125.81;4977385;28;1508;-77
2023/09/14 08:13:23;;;;;;;;;;;;;;;21.53;30.31;98116.69;4993750;28;989;-77
2023/09/14 08:15:49;;;;;;;;;;;;;;;21.61;30.42;98117.31;4994120;28;997;-77
2023/09/14 08:18:14;;;;;;;;;;;;;;;21.68;30.36;98127.66;4981808;28;1503;-78
2023/09/14 08:20:42;;;;;;;;;;;;;;;21.99;29.60;98102.56;4997589;28;1985;-77
2023/09/14 08:23:09;;;;;;;;;;;;;;;21.75;29.99;98116.94;4981266;28;1199;-77
2023/09/14 08:25:36;;;;;;;;;;;;;;;21.58;30.63;98106.84;5013851;28;1520;-77
2023/09/14 08:28:02;;;;;;;;;;;;;;;21.60;30.40;98110.03;5020379;28;956;-77
2023/09/14 08:30:27;;;;;;;;;;;;;;;21.57;30.29;98108.09;5004449;28;1323;-77
2023/09/14 08:32:53;;;;;;;;;;;;;;;21.44;30.67;98110.03;5042028;28;1520;-77
2023/09/14 08:35:19;;;;;;;;;;;;;;;21.79;29.91;98099.84;5039692;28;1430;-77
2023/09/14 08:37:45;;;;;;;;;;;;;;;21.89;29.88;98100.81;5053187;28;1073;-77
2023/09/14 08:40:20;;;;;;;;;;;;;;;21.70;30.22;98103.31;5057843;28;1982;-78
2023/09/14 08:42:47;;;;;;;;;;;;;;;21.83;29.93;98095.69;5057584;28;891;-77
2023/09/14 08:45:13;;;;;;;;;;;;;;;22.04;29.79;98093.53;5058149;28;971;-77
2023/09/14 08:47:39;;;;;;;;;;;;;;;21.91;29.92;98092.66;5056764;28;1508;-76
2023/09/14 08:50:05;;;;;;;;;;;;;;;21.81;30.09;98086.03;5040913;28;1046;-78
2023/09/14 08:52:31;;;;;;;;;;;;;;;21.61;30.27;98089.00;5057228;28;990;-77
2023/09/14 08:54:56;;;;;;;;;;;;;;;21.82;30.11;98082.78;5057639;28;979;-77
2023/09/14 08:57:22;;;;;;;;;;;;;;;21.79;30.26;98089.31;5023825;28;1519;-77
2023/09/14 08:59:48;;;;;;;;;;;;;;;21.64;30.43;98095.78;5037218;28;1910;-77
2023/09/14 09:02:13;;;;;;;;;;;;;;;21.91;30.04;98079.28;5037643;28;1551;-77
2023/09/14 09:04:39;;;;;;;;;;;;;;;21.80;30.28;98081.63;5037403;28;1337;-77
2023/09/14 09:07:05;;;;;;;;;;;;;;;21.79;30.25;98080.81;5061701;28;1377;-77
2023/09/14 09:09:30;;;;;;;;;;;;;;;21.74;30.27;98081.34;5057161;28;948;-78
2023/09/14 09:11:56;;;;;;;;;;;;;;;21.71;30.38;98090.75;5040406;28;1294;-77
2023/09/14 09:14:23;;;;;;;;;;;;;;;21.96;29.92;98080.78;5056946;28;891;-77
2023/09/14 09:16:49;;;;;;;;;;;;;;;21.71;30.18;98076.59;5056510;28;1473;-77
2023/09/14 09:19:15;;;;;;;;;;;;;;;21.70;30.24;98079.84;5057177;28;1011;-77
2023/09/14 09:21:41;;;;;;;;;;;;;;;21.92;30.24;98085.78;5057194;28;1910;-77
2023/09/14 09:24:07;;;;;;;;;;;;;;;21.82;30.27;98077.13;5057059;28;913;-78
2023/09/14 09:26:36;;;;;;;;;;;;;;;21.79;30.18;98083.66;5054487;28;1218;-77
2023/09/14 09:29:16;;;;;;;;;;;;;;;21.87;30.11;98083.50;5050895;28;1444;-77
2023/09/14 09:31:43;;;;;;;;;;;;;;;21.84;30.20;98082.31;5056816;28;956;-77
2023/09/14 09:34:09;;;;;;;;;;;;;;;21.93;30.04;98081.69;5040387;28;929;-77
2023/09/14 09:36:35;;;;;;;;;;;;;;;21.68;30.72;98077.47;5056053;28;1818;-76
2023/09/14 09:39:04;;;;;;;;;;;;;;;21.74;30.22;98075.69;5018910;28;1124;-77
2023/09/14 09:41:36;;;;;;;;;;;;;;;21.68;30.64;98071.81;5019618;28;1910;-77
2023/09/14 09:44:06;;;;;;;;;;;;;;;21.93;30.27;98076.81;4976674;28;897;-77
2023/09/14 09:46:32;;;;;;;;;;;;;;;21.77;30.43;98069.16;4959785;28;1325;-77
2023/09/14 09:48:58;;;;;;;;;;;;;;;21.87;30.22;98069.31;4960532;28;908;-77
2023/09/14 09:51:24;;;;;;;;;;;;;;;21.77;30.64;98069.16;4956970;29;999;-77
2023/09/14 09:54:02;;;;;;;;;;;;;;;21.98;30.28;98064.97;4957327;29;1003;-78
2023/09/14 09:56:28;;;;;;;;;;;;;;;21.84;30.08;98057.63;4956436;29;1316;-77
2023/09/14 09:58:53;;;;;;;;;;;;;;;21.71;30.63;98053.13;4957217;29;988;-77
2023/09/14 10:01:22;;;;;;;;;;;;;;;21.78;30.56;98059.41;4957020;29;1918;-77
2023/09/14 10:03:48;;;;;;;;;;;;;;;21.87;30.18;98050.28;4956998;29;937;-77
2023/09/14 10:06:13;;;;;;;;;;;;;;;21.74;30.44;98058.69;4956913;28;914;-77
2023/09/14 10:08:39;;;;;;;;;;;;;;;21.54;30.84;98060.84;4956234;29;1320;-77
2023/09/14 10:11:04;;;;;;;;;;;;;;;21.78;30.39;98062.25;4993331;28;1121;-78
2023/09/14 10:13:30;;;;;;;;;;;;;;;21.79;30.42;98055.34;4979470;28;985;-77
2023/09/14 10:15:55;;;;;;;;;;;;;;;21.84;30.42;98051.16;5031289;28;2002;-77
2023/09/14 10:18:21;;;;;;;;;;;;;;;21.74;30.68;98058.69;5054212;28;1464;-77
2023/09/14 10:20:47;;;;;;;;;;;;;;;21.73;30.43;98051.44;5055052;28;1917;-78
2023/09/14 10:23:14;;;;;;;;;;;;;;;21.84;30.16;98054.78;5037293;28;1473;-77
2023/09/14 10:25:40;;;;;;;;;;;;;;;21.91;30.08;98050.16;5038162;28;1135;-77
2023/09/14 10:28:05;;;;;;;;;;;;;;;21.94;30.06;98047.25;5039247;28;1052;-77
2023/09/14 10:30:31;;;;;;;;;;;;;;;21.97;29.94;98042.75;5055720;28;878;-78
2023/09/14 10:32:57;;;;;;;;;;;;;;;21.73;30.59;98051.44;5055843;28;903;-77
2023/09/14 10:35:22;;;;;;;;;;;;;;;21.75;30.22;98046.13;5042769;28;1414;-78
2023/09/14 10:37:48;;;;;;;;;;;;;;;22.01;29.86;98038.53;5056205;28;944;-77
2023/09/14 10:40:14;;;;;;;;;;;;;;;21.98;29.86;98035.84;5054597;28;1980;-77
2023/09/14 10:42:40;;;;;;;;;;;;;;;22.08;29.74;98043.25;5055555;28;978;-77
2023/09/14 10:45:06;;;;;;;;;;;;;;;22.05;30.06;98041.28;5033458;28;1327;-77
2023/09/14 10:47:36;;;;;;;;;;;;;;;21.92;30.16;98032.75;5017380;28;1723;-78
2023/09/14 10:50:02;;;;;;;;;;;;;;;21.79;30.48;98044.00;4994470;28;1059;-77
2023/09/14 10:52:28;;;;;;;;;;;;;;;21.93;30.37;98047.69;5014714;28;946;-78
2023/09/14 10:54:54;;;;;;;;;;;;;;;21.96;30.18;98036.25;5002378;28;1449;-78
2023/09/14 10:57:23;;;;;;;;;;;;;;;21.96;30.26;98036.25;4995010;28;1552;-77
2023/09/14 10:59:52;;;;;;;;;;;;;;;21.72;30.69;98049.88;4994669;28;1910;-77
2023/09/14 11:02:36;;;;;;;;;;;;;;;21.79;30.40;98038.34;4994817;28;1050;-78
2023/09/14 11:05:10;;;;;;;;;;;;;;;22.08;30.20;98043.25;4994623;28;983;-78
2023/09/14 11:07:36;;;;;;;;;;;;;;;21.98;30.36;98038.66;4991324;28;1319;-78
2023/09/14 11:10:02;;;;;;;;;;;;;;;22.05;30.04;98035.63;4975301;28;1084;-78
2023/09/14 11:12:27;;;;;;;;;;;;;;;21.49;30.83;98045.19;4974982;28;1000;-77
2023/09/14 11:15:14;;;;;;;;;;;;;;;21.65;30.87;98038.72;4990558;28;1427;-77
2023/09/14 11:17:43;;;;;;;;;;;;;;;21.61;30.74;98038.03;5014173;28;1434;-78
2023/09/14 11:20:28;;;;;;;;;;;;;;;21.84;30.44;98034.97;5014230;28;1971;-77
2023/09/14 11:23:03;;;;;;;;;;;;;;;21.81;30.45;98027.38;4985331;28;1050;-78
2023/09/14 11:25:29;;;;;;;;;;;;;;;21.79;30.32;98029.84;5008238;28;1395;-77
2023/09/14 11:27:55;;;;;;;;;;;;;;;21.59;30.87;98029.16;5017094;28;1041;-77
2023/09/14 11:30:21;;;;;;;;;;;;;;;21.87;30.20;98036.13;5017101;28;941;-77
2023/09/14 11:32:46;;;;;;;;;;;;;;;21.81;30.26;98030.22;5013744;28;1021;-77
2023/09/14 11:35:12;;;;;;;;;;;;;;;21.74;30.51;98015.44;4976661;28;1550;-77
2023/09/14 11:37:39;;;;;;;;;;;;;;;22.02;29.91;98028.00;4977950;28;949;-77
2023/09/14 11:40:06;;;;;;;;;;;;;;;21.44;30.95;98008.13;5005044;28;1977;-77
2023/09/14 11:42:50;;;;;;;;;;;;;;;21.68;30.84;98012.34;4982639;28;1491;-78
2023/09/14 11:45:15;;;;;;;;;;;;;;;21.93;30.24;98019.38;4994017;28;983;-77
2023/09/14 11:47:40;;;;;;;;;;;;;;;21.66;30.69;98012.00;4978012;28;1080;-78
2023/09/14 11:50:06;;;;;;;;;;;;;;;21.73;30.66;98017.47;4978034;28;961;-78
2023/09/14 11:52:32;;;;;;;;;;;;;;;22.12;30.02;98009.94;4991144;28;1402;-77
2023/09/14 11:54:57;;;;;;;;;;;;;;;21.98;29.99;98021.66;4981531;28;1002;-77
2023/09/14 11:57:27;;;;;;;;;;;;;;;22.03;30.05;98009.78;4998879;28;1135;-77
2023/09/14 11:59:52;;;;;;;;;;;;;;;22.13;29.92;98022.88;4974563;28;1987;-78
2023/09/14 12:02:18;;;;;;;;;;;;;;;21.93;30.38;98014.50;5001212;28;1499;-77
2023/09/14 12:04:44;;;;;;;;;;;;;;;21.96;30.36;98027.75;5001429;28;945;-78
2023/09/14 12:07:10;;;;;;;;;;;;;;;22.02;29.98;98019.50;5001069;28;979;-77
2023/09/14 12:09:36;;;;;;;;;;;;;;;22.05;29.96;98018.63;5008086;28;1027;-77
2023/09/14 12:12:02;;;;;;;;;;;;;;;21.75;30.27;98020.63;5016955;28;1567;-77
2023/09/14 12:14:54;;;;;;;;;;;;;;;21.91;30.37;98016.19;5000832;28;970;-77
2023/09/14 12:17:20;;;;;;;;;;;;;;;22.00;30.21;98013.50;4962068;28;1016;-77
2023/09/14 12:19:48;;;;;;;;;;;;;;;22.06;30.11;98004.00;4977996;28;1898;-78
2023/09/14 12:22:15;;;;;;;;;;;;;;;21.94;30.30;98009.63;4945661;28;1443;-78
2023/09/14 12:24:41;;;;;;;;;;;;;;;21.80;30.28;98005.94;4942844;29;1050;-77
2023/09/14 12:27:07;;;;;;;;;;;;;;;21.43;31.16;98010.16;4926917;29;946;-77
2023/09/14 12:29:32;;;;;;;;;;;;;;;21.70;30.59;98001.34;4911500;29;1172;-78
2023/09/14 12:31:58;;;;;;;;;;;;;;;22.03;29.76;98007.75;4926372;29;1336;-78
2023/09/14 12:34:23;;;;;;;;;;;;;;;21.85;30.37;98005.38;4926481;29;1029;-77
2023/09/14 12:36:49;;;;;;;;;;;;;;;21.79;30.50;98004.34;4942405;29;988;-77
2023/09/14 12:39:15;;;;;;;;;;;;;;;22.11;30.03;97994.19;4958540;29;1108;-77
2023/09/14 12:41:41;;;;;;;;;;;;;;;21.82;30.15;98002.69;4942102;29;1985;-77
2023/09/14 12:44:06;;;;;;;;;;;;;;;21.85;30.26;98001.75;4963122;28;916;-78
2023/09/14 12:46:32;;;;;;;;;;;;;;;22.12;29.78;97998.59;4997330;28;972;-78
2023/09/14 12:49:00;;;;;;;;;;;;;;;22.03;29.86;98002.06;4997314;28;1071;-77
2023/09/14 12:51:26;;;;;;;;;;;;;;;21.92;29.86;97995.13;4996576;28;1409;-78
2023/09/14 12:53:54;;;;;;;;;;;;;;;21.60;30.75;97991.09;4996724;28;1013;-78
2023/09/14 12:56:20;;;;;;;;;;;;;;;21.90;30.39;97994.75;5003739;28;1134;-77